Impacts METAR Board
IDs:

KDCA - Washington/National, VA, US

Updated at: 1100 UTC 23 Jun 2021
Potential Impact None Slight Moderate High
Time 22/23Z 23/00Z 23/01Z 23/02Z 23/03Z 23/04Z 23/05Z 23/06Z 23/07Z 23/08Z 23/09Z 23/10Z 23/11Z
Temp70 69 68 66 65 63 61 61 59 59 58 57 59
Dewpt54 53 51 52 50 49 50 50 50 47 48 46 48
Altim29.90 29.92 29.96 30.00 30.02 30.04 30.05 30.07 30.08 30.10 30.12 30.15 30.17
VIS10 10 10 10 10 10 10 10 10 10 10 10 10
CIG250 250 250 -- 250 -- -- -- -- -- -- -- --
CoverBKNBKNBKNSCTBKNFEWFEWFEWSCTSCTFEWFEWFEW
FltCatVFRVFRVFRVFRVFRVFRVFRVFRVFRVFRVFRVFRVFR
WX--------------------------
WDir340320320340330340340330330310320330330
WSpd7 9 4 5 7 6 7 6 7 5 5 6 4
WGst-- -- -- -- -- -- -- -- -- -- -- -- --
Raw hourly METARs
KDCA 222252Z 34007KT 10SM FEW027 FEW038 SCT075 BKN250 21/12 A2990 RMK AO2 SLP123 T02110122
KDCA 222352Z 32009KT 10SM FEW032 FEW080 BKN250 21/12 A2992 RMK AO2 SLP132 60001 T02060117 10211 20189 51028
KDCA 230052Z 32004KT 10SM FEW037 FEW085 BKN250 20/11 A2996 RMK AO2 SLP144 T02000106
KDCA 230152Z 34005KT 10SM FEW042 FEW090 SCT250 19/11 A3000 RMK AO2 SLP157 T01890111
KDCA 230252Z 33007KT 10SM FEW090 SCT140 BKN250 18/10 A3002 RMK AO2 SLP165 T01830100 51033
KDCA 230352Z 34006KT 10SM FEW250 17/09 A3004 RMK AO2 SLP172 T01720094
KDCA 230452Z 34007KT 10SM FEW150 FEW250 16/10 A3005 RMK AO2 SLP176 T01610100 402440161
KDCA 230552Z 33006KT 10SM FEW150 FEW250 16/10 A3007 RMK AO2 SLP182 T01610100 10206 20161 51017
KDCA 230652Z 33007KT 10SM FEW110 SCT250 15/10 A3008 RMK AO2 SLP185 T01500100
KDCA 230752Z 31005KT 10SM SCT250 15/08 A3010 RMK AO2 SLP191 T01500083
KDCA 230852Z 32005KT 10SM FEW110 FEW250 14/09 A3012 RMK AO2 SLP198 T01440089 53016
KDCA 230952Z 33006KT 10SM FEW110 14/08 A3015 RMK AO2 SLP210 T01390078
KDCA 231052Z 33004KT 10SM FEW140 FEW250 15/09 A3017 RMK AO2 SLP217 T01500089



Page loaded:  11:25 UTC  |   04:25 AM Pacific  |   05:25 AM Mountain  |   06:25 AM Central  |   07:25 AM Eastern

 

ADVISORIES

FORECASTS

FORECASTS

OBSERVATIONS

USER TOOLS

ABOUT US